Time;durP1;ratioP1;P1;durP2;ratioP2;P2;SDS_P1;SDS_P2;PMS_P1;PMS_P2;Temp;Humidity;BMP_temperature;BMP_pressure;BME280_temperature;BME280_humidity;BME280_pressure;Samples;Min_cycle;Max_cycle;Signal;HPM_P1;HPM_P2
2022/10/21 00:00:08;;;;;;;2.47;2.23;;;;;;;23.20;60.64;97340.88;5049876;28;20232;-31
2022/10/21 00:02:34;;;;;;;2.30;2.10;;;;;;;23.23;60.46;97338.38;5058121;28;20204;-31
2022/10/21 00:05:02;;;;;;;2.43;2.03;;;;;;;23.24;60.30;97354.66;5050472;28;20200;-31
2022/10/21 00:07:28;;;;;;;2.50;2.30;;;;;;;23.24;60.43;97362.38;5046823;28;20538;-31
2022/10/21 00:09:55;;;;;;;3.03;2.30;;;;;;;23.23;60.27;97358.88;5050035;28;20232;-31
2022/10/21 00:12:21;;;;;;;2.43;2.23;;;;;;;23.24;60.40;97362.38;5050111;28;20201;-31
2022/10/21 00:14:48;;;;;;;2.03;1.93;;;;;;;23.23;60.54;97355.44;5050094;28;20204;-31
2022/10/21 00:17:19;;;;;;;2.37;2.17;;;;;;;23.24;60.22;97362.38;5049932;28;20592;-31
2022/10/21 00:19:45;;;;;;;2.33;2.17;;;;;;;23.24;60.43;97381.16;5058755;28;20228;-31
2022/10/21 00:22:12;;;;;;;2.20;2.10;;;;;;;23.23;60.06;97402.47;5055773;28;20590;-31
2022/10/21 00:24:38;;;;;;;2.00;1.90;;;;;;;23.24;60.51;97403.38;5050180;28;20598;-31
2022/10/21 00:27:05;;;;;;;2.40;2.20;;;;;;;23.23;60.44;97402.47;5049212;28;20467;-31
2022/10/21 00:29:31;;;;;;;2.20;2.00;;;;;;;23.24;60.42;97439.28;5049573;28;20216;-31
2022/10/21 00:31:58;;;;;;;2.40;2.20;;;;;;;23.24;60.35;97417.06;5058612;28;20208;-31
2022/10/21 00:34:24;;;;;;;2.30;2.10;;;;;;;23.24;60.30;97409.34;5046983;28;20615;-31
2022/10/21 00:36:56;;;;;;;1.97;1.87;;;;;;;23.24;60.21;97399.09;5052123;28;20212;-31
2022/10/21 00:39:22;;;;;;;2.10;2.00;;;;;;;23.24;60.25;97388.00;5053742;28;20228;-31
2022/10/21 00:41:49;;;;;;;2.40;2.20;;;;;;;23.24;60.34;97396.53;5049837;28;20196;-31
2022/10/21 00:44:15;;;;;;;1.90;1.80;;;;;;;23.24;60.59;97421.34;5048785;28;20209;-31
2022/10/21 00:46:52;;;;;;;2.10;2.00;;;;;;;23.25;60.56;97438.44;5052052;28;20220;-31
2022/10/21 00:49:34;;;;;;;1.90;1.80;;;;;;;23.25;60.20;97428.19;5041368;28;20220;-31
2022/10/21 00:52:01;;;;;;;2.37;2.17;;;;;;;23.22;60.47;97438.34;5049780;28;20231;-31
2022/10/21 00:54:27;;;;;;;2.20;2.03;;;;;;;23.25;60.67;97433.31;5027774;28;20780;-31
2022/10/21 00:56:54;;;;;;;2.23;2.10;;;;;;;23.20;60.34;97419.50;5027509;28;20208;-31
2022/10/21 00:59:21;;;;;;;2.00;1.90;;;;;;;23.21;60.46;97426.38;5023058;28;21095;-31
2022/10/21 01:01:48;;;;;;;2.10;2.00;;;;;;;23.16;60.11;97415.13;5032116;28;20205;-31
2022/10/21 01:04:14;;;;;;;2.37;2.17;;;;;;;23.24;60.12;97435.00;5058483;28;20203;-31
2022/10/21 01:06:41;;;;;;;2.30;2.10;;;;;;;23.25;60.53;97435.88;5035181;28;20218;-32
2022/10/21 01:09:08;;;;;;;2.17;2.07;;;;;;;23.24;60.46;97423.91;5023701;28;20233;-31
2022/10/21 01:11:41;;;;;;;2.40;2.20;;;;;;;23.24;60.47;97421.34;5030218;28;20308;-31
2022/10/21 01:14:36;;;;;;;2.30;2.10;;;;;;;23.25;60.54;97417.94;5034467;28;20201;-31
2022/10/21 01:17:17;;;;;;;2.47;2.27;;;;;;;23.24;60.46;97417.06;5042140;28;20212;-31
2022/10/21 01:20:17;;;;;;;2.50;2.30;;;;;;;23.24;60.42;97409.34;5038032;28;20252;-31
2022/10/21 01:23:09;;;;;;;2.00;1.90;;;;;;;23.24;60.56;97399.09;5035603;28;20202;-31
2022/10/21 01:26:00;;;;;;;2.27;2.10;;;;;;;23.24;60.22;97399.09;5036662;28;20225;-31
2022/10/21 01:28:39;;;;;;;2.30;2.10;;;;;;;23.23;60.44;97394.78;5035802;28;20227;-31
2022/10/21 01:31:36;;;;;;;2.00;1.90;;;;;;;23.23;60.17;97384.53;5033955;28;20200;-31
2022/10/21 01:34:10;;;;;;;2.20;2.00;;;;;;;23.24;60.62;97393.13;5031383;28;20227;-31
2022/10/21 01:36:48;;;;;;;2.10;2.00;;;;;;;23.23;60.52;97399.03;5037863;28;20203;-31
2022/10/21 01:39:22;;;;;;;2.30;2.10;;;;;;;23.24;60.37;97388.00;5046640;28;20353;-31
2022/10/21 01:42:02;;;;;;;1.90;1.80;;;;;;;23.23;60.31;97371.72;5040154;28;20208;-31
2022/10/21 01:44:34;;;;;;;2.40;2.20;;;;;;;23.23;60.45;97378.53;5032044;28;20209;-31
2022/10/21 01:47:09;;;;;;;2.00;1.90;;;;;;;23.08;60.55;97360.25;5037797;28;20224;-31
2022/10/21 01:49:51;;;;;;;2.57;2.37;;;;;;;23.22;60.34;97372.56;5038306;28;20226;-31
2022/10/21 01:52:17;;;;;;;2.37;2.17;;;;;;;23.23;60.38;97375.97;5021298;28;20198;-31
2022/10/21 01:54:47;;;;;;;2.13;2.03;;;;;;;23.19;60.30;97361.38;5040986;28;20201;-31
2022/10/21 01:57:14;;;;;;;2.10;2.00;;;;;;;23.23;60.39;97358.00;5023926;28;20209;-31
2022/10/21 01:59:41;;;;;;;1.97;1.87;;;;;;;23.23;60.39;97358.88;5045950;28;20224;-31
2022/10/21 02:02:08;;;;;;;2.47;2.27;;;;;;;23.19;60.00;97354.53;5048426;28;20211;-31
2022/10/21 02:04:35;;;;;;;2.20;2.10;;;;;;;23.23;60.31;97358.88;5041402;28;20224;-31
2022/10/21 02:07:02;;;;;;;2.20;2.10;;;;;;;23.15;60.42;97333.94;5046484;28;20216;-31
2022/10/21 02:09:29;;;;;;;2.20;2.00;;;;;;;23.23;60.26;97346.06;5013393;28;20633;-31
2022/10/21 02:12:01;;;;;;;2.17;2.07;;;;;;;23.13;60.36;97330.47;5047465;28;20211;-31
2022/10/21 02:14:31;;;;;;;2.10;2.00;;;;;;;23.23;60.47;97346.06;5038164;28;20215;-31
2022/10/21 02:16:57;;;;;;;2.23;2.07;;;;;;;23.13;60.41;97313.41;5052333;28;20224;-31
2022/10/21 02:19:24;;;;;;;2.30;2.10;;;;;;;23.17;60.34;97317.75;5036460;28;20231;-31
2022/10/21 02:21:51;;;;;;;2.50;2.30;;;;;;;23.24;60.39;97316.22;5051449;28;20700;-31
2022/10/21 02:24:41;;;;;;;2.20;2.00;;;;;;;23.23;60.36;97320.44;5050916;28;20201;-31
2022/10/21 02:27:07;;;;;;;1.90;1.80;;;;;;;23.24;59.97;97311.94;5041416;28;20221;-31
2022/10/21 02:29:38;;;;;;;2.43;2.23;;;;;;;23.23;60.34;97310.19;5045099;28;20216;-31
2022/10/21 02:32:16;;;;;;;2.00;1.90;;;;;;;23.24;60.45;97317.06;5044610;28;20204;-31
2022/10/21 02:35:21;;;;;;;2.33;2.17;;;;;;;23.24;60.33;97324.75;5051732;28;20205;-31
2022/10/21 02:38:12;;;;;;;2.40;2.20;;;;;;;23.24;60.21;97324.75;5050176;28;20687;-31
2022/10/21 02:40:44;;;;;;;2.10;2.00;;;;;;;23.23;60.34;97325.56;5048208;28;20201;-31
2022/10/21 02:43:14;;;;;;;2.20;2.00;;;;;;;23.24;60.22;97313.66;5053828;28;20587;-31
2022/10/21 02:45:40;;;;;;;2.00;1.90;;;;;;;23.24;60.31;97311.09;5042751;28;20205;-31
2022/10/21 02:48:07;;;;;;;2.30;2.10;;;;;;;23.24;60.10;97306.78;5050302;28;20225;-31
2022/10/21 02:50:33;;;;;;;2.10;2.00;;;;;;;23.23;60.37;97311.84;5051176;28;20576;-31
2022/10/21 02:53:00;;;;;;;2.50;2.30;;;;;;;23.24;60.34;97319.63;5051066;28;20204;-31
2022/10/21 02:55:27;;;;;;;2.07;1.97;;;;;;;23.25;60.50;97323.06;5051133;28;20215;-31
2022/10/21 02:57:53;;;;;;;2.57;2.37;;;;;;;23.21;60.44;97301.56;5055536;28;20216;-31
2022/10/21 03:00:20;;;;;;;2.20;2.00;;;;;;;23.25;60.22;97305.09;5047938;28;20613;-31
2022/10/21 03:02:46;;;;;;;2.50;2.30;;;;;;;23.26;60.37;97309.38;5051547;28;20205;-32
2022/10/21 03:05:13;;;;;;;2.20;2.00;;;;;;;23.25;60.42;97308.53;5050605;28;20209;-31
2022/10/21 03:07:40;;;;;;;2.10;2.00;;;;;;;23.25;60.11;97295.72;5050726;28;20221;-31
2022/10/21 03:10:07;;;;;;;2.97;2.47;;;;;;;23.26;60.34;97299.13;5050805;28;20271;-31
2022/10/21 03:12:34;;;;;;;2.50;2.30;;;;;;;23.20;60.48;97293.84;5057849;28;20703;-31
2022/10/21 03:15:00;;;;;;;2.30;2.10;;;;;;;23.25;60.11;97299.97;5055772;28;20216;-31
2022/10/21 03:17:27;;;;;;;2.17;2.07;;;;;;;23.25;60.11;97294.84;5050776;28;20590;-31
2022/10/21 03:19:53;;;;;;;2.40;2.20;;;;;;;23.24;60.31;97296.53;5050493;28;20225;-31
2022/10/21 03:22:20;;;;;;;2.10;2.00;;;;;;;23.24;60.35;97293.97;5050810;28;20203;-31
2022/10/21 03:24:46;;;;;;;2.10;2.00;;;;;;;23.22;60.41;97287.06;5050878;28;20205;-31
2022/10/21 03:27:13;;;;;;;2.40;2.20;;;;;;;23.25;60.39;97289.72;5045967;28;20777;-31
2022/10/21 03:29:39;;;;;;;2.30;2.20;;;;;;;23.25;60.10;97290.59;5046998;28;20231;-31
2022/10/21 03:32:06;;;;;;;2.30;2.10;;;;;;;23.25;60.24;97275.22;5054385;28;20224;-32
2022/10/21 03:34:32;;;;;;;2.07;1.97;;;;;;;23.25;60.16;97282.91;5050068;28;20204;-31
2022/10/21 03:36:59;;;;;;;2.40;2.20;;;;;;;23.25;60.29;97282.03;5064314;28;20228;-31
2022/10/21 03:39:25;;;;;;;2.43;2.23;;;;;;;23.24;60.05;97273.47;5048668;28;20225;-32
2022/10/21 03:41:52;;;;;;;2.20;2.07;;;;;;;23.25;60.05;97275.22;5059974;28;20701;-32
2022/10/21 03:44:18;;;;;;;2.47;2.27;;;;;;;23.24;60.12;97275.19;5054892;28;20201;-31
2022/10/21 03:46:45;;;;;;;2.37;2.17;;;;;;;23.24;60.34;97276.03;5050439;28;20271;-31
2022/10/21 03:49:11;;;;;;;2.30;2.20;;;;;;;23.25;60.10;97292.28;5049740;28;20295;-31
2022/10/21 03:51:47;;;;;;;1.97;1.87;;;;;;;23.22;60.33;97281.94;5050146;28;20590;-31
2022/10/21 03:54:13;;;;;;;2.40;2.20;;;;;;;23.25;60.38;97282.03;5047394;28;20212;-31
2022/10/21 03:56:40;;;;;;;2.23;2.10;;;;;;;23.24;60.37;97270.91;5044394;28;20209;-31
2022/10/21 03:59:06;;;;;;;2.33;2.13;;;;;;;23.25;59.98;97264.09;5050539;28;20221;-31
2022/10/21 04:01:33;;;;;;;2.37;2.10;;;;;;;23.21;60.21;97263.13;5045505;28;20668;-31
2022/10/21 04:03:59;;;;;;;3.70;2.00;;;;;;;23.24;60.00;97267.50;5048375;28;20207;-31
2022/10/21 04:06:26;;;;;;;2.37;2.17;;;;;;;23.24;60.26;97259.81;5049841;28;20216;-31
2022/10/21 04:08:52;;;;;;;2.50;2.30;;;;;;;23.25;60.11;97253.81;5056613;28;20233;-31
2022/10/21 04:11:19;;;;;;;2.27;2.10;;;;;;;23.24;60.26;97268.34;5050764;28;20196;-31
2022/10/21 04:13:46;;;;;;;2.10;1.90;;;;;;;23.24;60.26;97255.50;5051566;28;20217;-31
2022/10/21 04:16:14;;;;;;;2.20;2.10;;;;;;;23.19;60.13;97225.47;5059147;28;20204;-31
2022/10/21 04:18:40;;;;;;;2.30;2.10;;;;;;;23.21;60.28;97234.06;5051345;28;20706;-31
2022/10/21 04:21:07;;;;;;;2.33;2.13;;;;;;;23.25;60.19;97253.81;5049993;28;20204;-31
2022/10/21 04:23:34;;;;;;;2.53;2.33;;;;;;;23.19;60.16;97216.09;5051707;28;20208;-31
2022/10/21 04:26:01;;;;;;;2.20;2.00;;;;;;;23.24;60.15;97221.34;5057129;28;20207;-31
2022/10/21 04:28:27;;;;;;;2.17;1.97;;;;;;;23.25;60.12;97207.69;5050634;28;20228;-31
2022/10/21 04:30:54;;;;;;;2.40;2.20;;;;;;;23.22;59.99;97205.03;5048426;28;20205;-31
2022/10/21 04:33:20;;;;;;;2.03;1.93;;;;;;;23.24;60.22;97199.09;5049738;28;20216;-31
2022/10/21 04:35:47;;;;;;;2.53;2.33;;;;;;;23.22;60.28;97194.78;5051399;28;20205;-31
2022/10/21 04:38:13;;;;;;;2.50;2.30;;;;;;;23.24;60.24;97191.41;5044985;28;20227;-31
2022/10/21 04:40:40;;;;;;;2.53;2.33;;;;;;;23.24;60.39;97191.41;5049043;28;20201;-32
2022/10/21 04:43:07;;;;;;;2.20;2.10;;;;;;;23.24;60.62;97193.13;5055770;28;20211;-31
2022/10/21 04:45:33;;;;;;;2.20;2.10;;;;;;;23.24;60.03;97193.13;5044779;28;20592;-31
2022/10/21 04:48:00;;;;;;;2.10;2.00;;;;;;;23.25;60.30;97182.03;5055427;28;20233;-31
2022/10/21 04:50:26;;;;;;;2.27;2.03;;;;;;;23.24;60.58;97181.16;5048513;28;20212;-31
2022/10/21 04:52:53;;;;;;;2.30;2.10;;;;;;;23.24;60.41;97176.03;5058779;28;20592;-31
2022/10/21 04:55:19;;;;;;;2.47;2.27;;;;;;;23.25;60.21;97174.34;5051968;28;20204;-31
2022/10/21 04:57:46;;;;;;;2.60;2.30;;;;;;;23.25;60.19;97169.22;5046893;28;20661;-31
2022/10/21 05:00:12;;;;;;;2.53;2.37;;;;;;;23.25;60.24;97164.09;5041433;28;20628;-32
2022/10/21 05:02:39;;;;;;;3.50;2.30;;;;;;;23.26;60.22;97170.94;5049364;28;20208;-31
2022/10/21 05:05:06;;;;;;;2.57;2.37;;;;;;;23.25;60.09;97175.22;5055753;28;20204;-31
2022/10/21 05:07:33;;;;;;;2.50;2.30;;;;;;;23.25;60.19;97170.09;5047427;28;20223;-31
2022/10/21 05:10:00;;;;;;;4.17;2.70;;;;;;;23.26;60.28;97173.50;5049208;28;20224;-31
2022/10/21 05:12:26;;;;;;;2.90;2.30;;;;;;;23.26;60.19;97179.50;5060123;28;20585;-31
2022/10/21 05:14:53;;;;;;;3.70;2.60;;;;;;;23.24;60.32;97182.88;5057225;28;20231;-31
2022/10/21 05:17:19;;;;;;;7.13;3.17;;;;;;;23.26;60.01;97176.94;5055336;28;20193;-31
2022/10/21 05:19:46;;;;;;;6.50;3.40;;;;;;;23.28;59.59;97171.84;5050840;28;20315;-31
2022/10/21 05:22:12;;;;;;;4.13;3.73;;;;;;;23.27;58.75;97162.44;5048313;28;20208;-31
2022/10/21 05:24:39;;;;;;;9.47;5.10;;;;;;;23.28;57.70;97166.69;5049903;28;20207;-31
2022/10/21 05:27:05;;;;;;;9.50;5.50;;;;;;;23.26;57.59;97166.69;5046790;28;20217;-31
2022/10/21 05:29:32;;;;;;;10.77;5.70;;;;;;;23.26;56.15;97159.00;5043550;28;20235;-32
2022/10/21 05:31:58;;;;;;;9.40;6.20;;;;;;;23.25;56.09;97166.66;5061224;28;20208;-31
2022/10/21 05:34:25;;;;;;;8.40;6.37;;;;;;;23.25;56.01;97164.09;5059896;28;20201;-31
2022/10/21 05:36:51;;;;;;;7.83;6.70;;;;;;;23.25;55.50;97166.66;5053288;28;20208;-31
2022/10/21 05:39:18;;;;;;;8.43;6.63;;;;;;;23.24;55.69;97162.38;5048998;28;20228;-31
2022/10/21 05:41:44;;;;;;;11.13;6.70;;;;;;;23.24;56.08;97155.53;5028370;28;20205;-31
2022/10/21 05:44:13;;;;;;;9.93;6.40;;;;;;;23.24;56.34;97159.81;5048073;28;20283;-31
2022/10/21 05:46:40;;;;;;;8.70;6.20;;;;;;;23.23;57.18;97155.47;5047662;28;20239;-31
2022/10/21 05:49:06;;;;;;;8.40;6.13;;;;;;;23.23;57.30;97158.91;5048152;28;20239;-31
2022/10/21 05:51:33;;;;;;;9.00;5.20;;;;;;;23.17;57.38;97156.22;5047800;28;20201;-31
2022/10/21 05:54:01;;;;;;;6.47;5.57;;;;;;;23.22;57.57;97172.56;5048981;28;20504;-31
2022/10/21 05:56:28;;;;;;;6.43;5.70;;;;;;;23.20;57.63;97165.66;5054564;28;20207;-31
2022/10/21 05:58:54;;;;;;;10.00;5.67;;;;;;;23.18;57.61;97170.78;5054842;28;20707;-31
2022/10/21 06:01:21;;;;;;;8.77;5.57;;;;;;;23.23;57.67;97170.84;5052062;28;20208;-31
2022/10/21 06:03:47;;;;;;;8.17;5.30;;;;;;;23.23;58.11;97166.59;5052192;28;20584;-31
2022/10/21 06:06:14;;;;;;;8.23;5.30;;;;;;;23.22;57.77;97157.19;5050538;28;20208;-31
2022/10/21 06:08:40;;;;;;;8.77;5.80;;;;;;;23.23;57.79;97163.16;5052191;28;20227;-31
2022/10/21 06:11:12;;;;;;;8.67;5.40;;;;;;;23.23;58.01;97173.41;5044020;28;20192;-31
2022/10/21 06:13:39;;;;;;;6.43;4.97;;;;;;;23.18;57.77;97170.78;5043943;28;20829;-31
2022/10/21 06:16:06;;;;;;;5.53;4.87;;;;;;;23.16;57.89;97158.78;5047708;28;20217;-31
2022/10/21 06:18:33;;;;;;;7.43;4.97;;;;;;;23.22;58.02;97161.44;5055196;28;20507;-31
2022/10/21 06:20:59;;;;;;;5.20;4.70;;;;;;;23.25;58.12;97172.66;5061303;28;20209;-31
2022/10/21 06:23:26;;;;;;;7.17;4.97;;;;;;;23.24;57.90;97173.47;5054908;28;20205;-31
2022/10/21 06:25:59;;;;;;;6.13;4.67;;;;;;;23.25;58.36;97166.66;5047876;28;20207;-31
2022/10/21 06:28:26;;;;;;;6.73;5.20;;;;;;;23.25;58.30;97180.34;5049612;28;20239;-31
2022/10/21 06:30:52;;;;;;;9.30;5.90;;;;;;;23.22;57.64;97162.31;5043399;28;20216;-31
2022/10/21 06:33:19;;;;;;;7.80;5.60;;;;;;;23.20;56.61;97158.84;5052783;28;20204;-31
2022/10/21 06:35:52;;;;;;;14.20;6.10;;;;;;;23.24;56.51;97165.78;5043443;28;20209;-31
2022/10/21 06:38:19;;;;;;;7.43;5.50;;;;;;;23.25;56.98;97169.22;5043347;28;20231;-31
2022/10/21 06:40:47;;;;;;;7.27;5.30;;;;;;;23.25;57.47;97171.78;5042726;28;20216;-31
2022/10/21 06:43:14;;;;;;;6.13;5.30;;;;;;;23.24;57.23;97180.31;5047804;28;20208;-31
2022/10/21 06:45:41;;;;;;;5.63;5.03;;;;;;;23.24;57.59;97175.19;5045623;28;20208;-31
2022/10/21 06:48:07;;;;;;;11.63;5.43;;;;;;;23.23;57.87;97186.22;5053177;28;20217;-31
2022/10/21 06:50:35;;;;;;;6.57;5.47;;;;;;;23.24;57.73;97182.88;5044388;28;20216;-31
2022/10/21 06:53:02;;;;;;;8.33;5.10;;;;;;;23.22;58.02;97181.94;5039507;28;20430;-32
2022/10/21 06:55:28;;;;;;;9.40;4.97;;;;;;;23.23;58.04;97174.28;5055293;28;20196;-31
2022/10/21 06:57:55;;;;;;;6.33;5.00;;;;;;;23.20;58.21;97157.97;5060908;28;20197;-31
2022/10/21 07:00:21;;;;;;;6.53;4.30;;;;;;;23.24;58.19;97167.50;5050359;28;20668;-31
2022/10/21 07:02:48;;;;;;;7.80;4.87;;;;;;;23.25;58.19;97164.09;5034743;28;20206;-31
2022/10/21 07:05:15;;;;;;;5.47;4.53;;;;;;;23.24;58.24;97152.13;5044823;28;20197;-31
2022/10/21 07:07:41;;;;;;;5.97;4.63;;;;;;;23.23;58.42;97158.91;5034742;28;20723;-31
2022/10/21 07:10:08;;;;;;;4.10;3.70;;;;;;;23.21;58.56;97145.19;5036382;28;20225;-32
2022/10/21 07:12:34;;;;;;;5.10;4.43;;;;;;;23.25;58.23;97135.88;5038860;28;20225;-32
2022/10/21 07:15:01;;;;;;;7.23;4.20;;;;;;;23.24;58.58;97131.59;5042654;28;20216;-31
2022/10/21 07:17:29;;;;;;;4.83;4.00;;;;;;;23.23;58.62;97137.50;5048936;28;20197;-32
2022/10/21 07:19:56;;;;;;;6.67;4.10;;;;;;;23.23;58.78;97138.38;5050290;28;20221;-31
2022/10/21 07:22:22;;;;;;;4.43;3.90;;;;;;;23.24;58.71;97142.69;5049988;28;20200;-31
2022/10/21 07:24:49;;;;;;;6.20;4.10;;;;;;;23.25;59.01;97138.44;5045508;28;20294;-31
2022/10/21 07:27:16;;;;;;;5.67;4.20;;;;;;;23.24;58.74;97129.88;5038316;28;20215;-31
2022/10/21 07:29:42;;;;;;;4.00;3.60;;;;;;;23.22;58.80;97105.91;5051942;28;20729;-31
2022/10/21 07:32:09;;;;;;;5.83;3.60;;;;;;;23.25;58.98;97097.44;5043114;28;20215;-31
2022/10/21 07:34:35;;;;;;;6.33;4.33;;;;;;;23.23;59.08;97104.19;5037623;28;20198;-31
2022/10/21 07:37:02;;;;;;;7.87;4.00;;;;;;;23.25;59.14;97108.56;5052044;28;20201;-31
2022/10/21 07:39:28;;;;;;;6.53;4.00;;;;;;;23.24;59.12;97114.50;5053867;28;20227;-32
2022/10/21 07:41:56;;;;;;;5.10;3.30;;;;;;;23.26;59.02;97117.97;5047101;28;20201;-31
2022/10/21 07:44:23;;;;;;;4.20;3.80;;;;;;;23.24;59.06;97108.53;5041245;28;20198;-31
2022/10/21 07:46:50;;;;;;;7.67;3.43;;;;;;;23.27;58.97;97123.97;5049584;28;20208;-31
2022/10/21 07:49:17;;;;;;;5.57;3.40;;;;;;;23.26;58.95;97119.66;5044262;28;20224;-31
2022/10/21 07:51:44;;;;;;;4.83;3.50;;;;;;;23.27;59.09;97123.97;5042644;28;20204;-31
2022/10/21 07:54:12;;;;;;;9.03;3.63;;;;;;;23.27;59.19;97129.09;5052601;28;20216;-31
2022/10/21 07:56:44;;;;;;;3.43;3.13;;;;;;;23.23;59.20;97124.69;5040400;28;20209;-31
2022/10/21 07:59:11;;;;;;;4.30;3.30;;;;;;;23.27;59.44;97129.09;5049648;28;20220;-31
2022/10/21 08:01:40;;;;;;;4.03;3.00;;;;;;;23.27;59.05;97134.22;5047317;28;20743;-31
2022/10/21 08:04:07;;;;;;;4.50;3.40;;;;;;;23.27;59.16;97129.94;5046233;28;20633;-31
2022/10/21 08:06:34;;;;;;;6.20;3.27;;;;;;;23.27;59.32;97135.06;5037680;28;20197;-32
2022/10/21 08:09:00;;;;;;;5.13;3.20;;;;;;;23.26;59.50;97137.59;5031087;28;20227;-31
2022/10/21 08:11:29;;;;;;;3.63;3.30;;;;;;;23.27;59.35;97145.31;5041954;28;20231;-32
2022/10/21 08:13:56;;;;;;;3.43;3.07;;;;;;;23.28;59.33;97141.06;5033894;28;20212;-31
2022/10/21 08:16:23;;;;;;;4.43;3.07;;;;;;;23.27;59.42;97147.03;5039386;28;20300;-31
2022/10/21 08:18:49;;;;;;;4.13;2.90;;;;;;;23.27;59.42;97152.16;5037255;28;20224;-31
2022/10/21 08:21:16;;;;;;;4.03;3.07;;;;;;;23.21;59.40;97126.41;5045137;28;20209;-31
2022/10/21 08:23:42;;;;;;;3.20;2.90;;;;;;;23.28;59.58;97141.06;5041018;28;20212;-31
2022/10/21 08:26:10;;;;;;;3.77;2.83;;;;;;;23.27;59.49;97135.06;5045799;28;20271;-31
2022/10/21 08:28:37;;;;;;;3.87;2.90;;;;;;;23.27;59.54;97137.63;5032722;28;20220;-31
2022/10/21 08:31:17;;;;;;;3.97;3.23;;;;;;;23.28;59.48;97135.94;5040685;28;20201;-31
2022/10/21 08:33:43;;;;;;;3.27;2.77;;;;;;;23.28;59.49;97138.50;5039580;28;20201;-31
2022/10/21 08:36:14;;;;;;;3.60;3.30;;;;;;;23.21;59.55;97114.41;5038037;28;20204;-31
2022/10/21 08:38:41;;;;;;;3.23;2.73;;;;;;;23.27;59.37;97121.41;5042068;28;20677;-31
2022/10/21 08:41:29;;;;;;;3.63;3.23;;;;;;;23.27;59.40;97111.97;5046998;28;20204;-31
2022/10/21 08:44:00;;;;;;;3.87;3.37;;;;;;;23.25;59.43;97110.25;5046565;28;20390;-31
2022/10/21 08:46:30;;;;;;;4.70;3.20;;;;;;;23.27;59.45;97123.97;5019375;28;20200;-31
2022/10/21 08:49:04;;;;;;;4.53;3.20;;;;;;;23.17;59.63;97109.22;5042353;28;20236;-31
2022/10/21 08:51:34;;;;;;;5.30;2.97;;;;;;;23.28;59.53;97128.25;5043731;28;20196;-31
2022/10/21 08:54:03;;;;;;;4.27;3.23;;;;;;;23.27;59.86;97116.28;5040957;28;20680;-31
2022/10/21 08:56:30;;;;;;;2.97;2.60;;;;;;;23.27;59.11;97116.28;5028267;28;20200;-31
2022/10/21 08:58:57;;;;;;;4.23;2.73;;;;;;;23.24;59.62;97111.09;5052084;28;20217;-31
2022/10/21 09:01:38;;;;;;;3.50;3.00;;;;;;;23.27;59.68;97139.34;5040403;28;20292;-31
2022/10/21 09:04:35;;;;;;;3.70;3.07;;;;;;;23.21;59.86;97134.94;5045683;28;20680;-32
2022/10/21 09:07:21;;;;;;;3.10;2.87;;;;;;;23.26;59.67;97159.00;5042421;28;20618;-31
2022/10/21 09:09:55;;;;;;;5.60;2.90;;;;;;;23.26;59.80;97176.06;5039199;28;20228;-31
2022/10/21 09:12:37;;;;;;;3.73;2.63;;;;;;;23.25;59.67;97182.91;5037750;28;20207;-31
2022/10/21 09:15:09;;;;;;;4.40;2.97;;;;;;;23.26;59.82;97186.31;5030647;28;20812;-31
2022/10/21 09:17:55;;;;;;;3.47;3.00;;;;;;;23.25;59.77;97189.72;5040431;28;20474;-31
2022/10/21 09:20:28;;;;;;;12.87;2.93;;;;;;;23.26;59.82;97188.88;5044201;28;20671;-31
2022/10/21 09:23:13;;;;;;;3.80;2.83;;;;;;;23.26;59.93;97188.88;5039768;28;20705;-31
2022/10/21 09:25:47;;;;;;;7.87;2.63;;;;;;;23.25;59.80;97199.97;5039850;28;20663;-31
2022/10/21 09:28:14;;;;;;;2.83;2.63;;;;;;;23.21;60.21;97195.63;5047113;28;20220;-31
2022/10/21 09:30:41;;;;;;;4.00;2.90;;;;;;;23.23;60.05;97219.56;5056133;28;20208;-31
2022/10/21 09:33:18;;;;;;;4.10;3.10;;;;;;;23.23;60.04;97223.00;5041265;28;20394;-31
2022/10/21 09:35:50;;;;;;;3.60;3.00;;;;;;;23.23;59.82;97224.69;5053433;28;20775;-31
2022/10/21 09:38:34;;;;;;;9.27;3.47;;;;;;;23.24;60.06;97227.31;5033912;28;20221;-31
2022/10/21 09:41:02;;;;;;;5.70;3.13;;;;;;;23.22;60.56;97217.84;5060881;28;20758;-31
2022/10/21 09:43:29;;;;;;;7.63;3.50;;;;;;;23.26;60.12;97204.25;5049835;28;20671;-31
2022/10/21 09:45:55;;;;;;;7.47;3.57;;;;;;;23.26;60.02;97204.25;5053426;28;20211;-31
2022/10/21 09:48:43;;;;;;;8.77;3.73;;;;;;;23.21;59.88;97199.03;5054346;28;20219;-31
2022/10/21 09:51:33;;;;;;;8.00;3.90;;;;;;;23.26;60.01;97186.31;5049910;28;20480;-31
2022/10/21 09:54:19;;;;;;;4.27;3.10;;;;;;;23.25;59.95;97170.09;5030436;28;20208;-31
2022/10/21 09:56:48;;;;;;;6.97;3.37;;;;;;;23.27;60.04;97172.69;5039728;28;20578;-31
2022/10/21 09:59:17;;;;;;;5.90;3.20;;;;;;;23.25;60.16;97175.22;5046273;28;20711;-31
2022/10/21 10:01:44;;;;;;;4.80;3.40;;;;;;;23.27;60.17;97178.66;5046860;28;20199;-31
2022/10/21 10:04:31;;;;;;;4.07;3.50;;;;;;;23.27;59.84;97173.53;5046921;28;20815;-31
2022/10/21 10:07:19;;;;;;;6.47;3.67;;;;;;;23.27;59.91;97201.72;5043533;28;20208;-32
2022/10/21 10:09:46;;;;;;;7.70;3.87;;;;;;;23.27;59.76;97216.28;5049509;28;20229;-32
2022/10/21 10:12:14;;;;;;;5.47;4.20;;;;;;;23.26;59.46;97235.03;5048013;28;20197;-31
2022/10/21 10:14:45;;;;;;;5.37;3.80;;;;;;;23.25;59.63;97243.56;5050536;28;20204;-32
2022/10/21 10:17:30;;;;;;;7.50;3.83;;;;;;;23.24;59.59;97260.66;5048967;28;20212;-31
2022/10/21 10:20:06;;;;;;;5.83;3.70;;;;;;;23.24;59.98;97270.06;5047967;28;20220;-31
2022/10/21 10:22:40;;;;;;;6.40;3.83;;;;;;;23.20;60.08;97263.09;5047011;28;20211;-31
2022/10/21 10:25:10;;;;;;;5.37;3.70;;;;;;;23.24;59.97;97280.31;5047393;28;20296;-31
2022/10/21 10:27:58;;;;;;;6.50;3.67;;;;;;;23.23;60.09;97276.84;5055818;28;20597;-31
2022/10/21 10:30:34;;;;;;;5.37;3.57;;;;;;;23.17;60.16;97258.78;5041515;28;20634;-31
2022/10/21 10:33:05;;;;;;;4.43;3.60;;;;;;;23.25;60.05;97271.78;5039641;28;20219;-31
2022/10/21 10:35:33;;;;;;;4.23;3.37;;;;;;;23.25;60.04;97244.44;5024259;28;20206;-31
2022/10/21 10:38:01;;;;;;;4.27;3.70;;;;;;;23.18;60.25;97216.91;5044864;28;20204;-31
2022/10/21 10:40:40;;;;;;;4.47;3.83;;;;;;;23.25;60.02;97223.06;5043681;28;20300;-31
2022/10/21 10:43:23;;;;;;;5.27;3.60;;;;;;;23.24;60.03;97208.53;5054592;28;20204;-31
2022/10/21 10:45:55;;;;;;;4.40;3.47;;;;;;;23.26;59.93;97194.00;5031177;28;20214;-31
2022/10/21 10:48:26;;;;;;;4.57;3.20;;;;;;;23.27;60.18;97180.38;5049326;28;20225;-31
2022/10/21 10:50:52;;;;;;;4.37;3.27;;;;;;;23.22;60.27;97171.69;5045864;28;20219;-32
2022/10/21 10:53:28;;;;;;;5.50;3.60;;;;;;;23.26;60.35;97166.69;5046284;28;20212;-31
2022/10/21 10:56:27;;;;;;;5.07;3.50;;;;;;;23.27;60.24;97167.56;5043162;28;20204;-31
2022/10/21 10:59:18;;;;;;;6.17;3.20;;;;;;;23.27;60.37;97157.28;5045360;28;20225;-31
2022/10/21 11:01:53;;;;;;;5.13;3.07;;;;;;;23.28;60.26;97166.69;5049937;28;20341;-31
2022/10/21 11:04:26;;;;;;;5.53;2.97;;;;;;;23.27;60.30;97191.47;5041610;28;20251;-31
2022/10/21 11:06:57;;;;;;;4.33;3.20;;;;;;;23.28;60.29;97157.31;5040501;28;20209;-30
2022/10/21 11:09:23;;;;;;;6.67;3.53;;;;;;;23.29;60.37;97158.16;5049757;28;20224;-31
2022/10/21 11:11:55;;;;;;;4.63;2.93;;;;;;;23.26;60.25;97174.38;5043965;28;20733;-31
2022/10/21 11:14:21;;;;;;;4.90;3.17;;;;;;;23.29;60.50;97176.09;5045372;28;20689;-31
2022/10/21 11:17:00;;;;;;;3.17;2.90;;;;;;;23.29;60.40;97176.09;5045071;28;20302;-32
2022/10/21 11:20:02;;;;;;;4.57;3.23;;;;;;;23.29;60.48;97201.75;5046637;28;20220;-31
2022/10/21 11:22:48;;;;;;;5.33;3.03;;;;;;;23.31;60.35;97207.78;5051271;28;20573;-32
2022/10/21 11:25:27;;;;;;;4.43;3.17;;;;;;;23.30;60.41;97204.34;5050129;28;20618;-31
2022/10/21 11:27:59;;;;;;;3.20;2.90;;;;;;;23.30;60.32;97206.91;5044945;28;20618;-31
2022/10/21 11:31:05;;;;;;;5.33;3.20;;;;;;;23.31;60.49;97207.78;5043209;28;20254;-31
2022/10/21 11:33:53;;;;;;;4.23;2.90;;;;;;;23.28;60.27;97203.47;5051576;28;20204;-32
2022/10/21 11:36:28;;;;;;;4.10;3.20;;;;;;;23.31;60.45;97210.34;5042790;28;20201;-31
2022/10/21 11:39:28;;;;;;;3.53;2.93;;;;;;;22.78;60.25;97173.47;5045982;28;20216;-32
2022/10/21 11:42:07;;;;;;;4.47;2.80;;;;;;;23.31;60.47;97271.88;5042194;28;20217;-31
2022/10/21 11:44:37;;;;;;;4.13;3.00;;;;;;;23.31;60.27;97270.19;5047472;28;20209;-31
2022/10/21 11:47:15;;;;;;;4.77;3.00;;;;;;;23.32;60.07;97283.88;5044925;28;20204;-31
2022/10/21 11:49:49;;;;;;;4.33;3.03;;;;;;;23.32;60.15;97273.59;5031902;28;20217;-31